Time;durP1;ratioP1;P1;durP2;ratioP2;P2;SDS_P1;SDS_P2;PMS_P1;PMS_P2;Temp;Humidity;BMP_temperature;BMP_pressure;BME280_temperature;BME280_humidity;BME280_pressure;Samples;Min_cycle;Max_cycle;Signal;HPM_P1;HPM_P2
2020/12/26 00:01:17;168442.00;0.56;291.58;76155.00;0.25;132.40;;;;;8.10;1.00;;;;;;2272165;61;1098;-86
2020/12/26 00:03:45;167955.00;0.56;290.74;80341.00;0.27;139.63;;;;;7.80;1.00;;;;;;2273437;61;1066;-86
2020/12/26 00:06:14;325253.00;1.08;561.33;120385.00;0.40;208.75;;;;;7.60;1.00;;;;;;2272170;61;1064;-86
2020/12/26 00:08:41;316976.00;1.06;547.10;93350.00;0.31;162.09;;;;;7.30;1.00;;;;;;2272216;61;1369;-87
2020/12/26 00:11:09;223435.00;0.74;386.25;94905.00;0.32;164.78;;;;;7.70;1.00;;;;;;2272141;61;941;-86
2020/12/26 00:13:36;362751.00;1.21;625.78;97418.00;0.32;169.11;;;;;8.60;1.00;;;;;;2272169;61;2013;-84
2020/12/26 00:16:04;289706.00;0.97;500.22;88856.00;0.30;154.33;;;;;9.50;1.00;;;;;;2272216;61;1021;-85
2020/12/26 00:18:31;361983.00;1.21;624.46;86611.00;0.29;150.46;;;;;9.80;1.00;;;;;;2272193;61;1345;-84
2020/12/26 00:20:59;296786.00;0.99;512.40;88221.00;0.29;153.24;;;;;10.30;1.00;;;;;;2272217;61;1011;-84
2020/12/26 00:23:25;177356.00;0.59;306.94;86720.00;0.29;150.64;;;;;9.40;1.00;;;;;;2273074;61;1159;-84
2020/12/26 00:25:51;233468.00;0.78;403.51;93473.00;0.31;162.30;;;;;10.00;1.00;;;;;;2276982;61;1094;-84
2020/12/26 00:28:19;211194.00;0.70;365.19;90434.00;0.30;157.06;;;;;10.40;1.00;;;;;;2277551;61;1364;-85
2020/12/26 00:30:45;209161.00;0.70;361.69;85805.00;0.29;149.06;;;;;10.70;1.00;;;;;;2281448;61;1117;-84
2020/12/26 00:33:12;245574.00;0.82;424.34;86655.00;0.29;150.53;;;;;10.40;1.00;;;;;;2281372;61;1996;-86
2020/12/26 00:35:38;278503.00;0.93;480.96;88165.00;0.29;153.14;;;;;9.50;1.00;;;;;;2281423;61;1129;-85
2020/12/26 00:38:05;220635.00;0.74;381.44;83129.00;0.28;144.44;;;;;9.30;1.00;;;;;;2281369;61;1417;-84
2020/12/26 00:40:31;222393.00;0.74;384.46;86837.00;0.29;150.85;;;;;9.10;1.00;;;;;;2281380;61;1129;-84
2020/12/26 00:42:58;253172.00;0.84;437.41;84828.00;0.28;147.38;;;;;9.00;1.00;;;;;;2281400;61;1052;-85
2020/12/26 00:45:25;305769.00;1.02;527.84;90177.00;0.30;156.61;;;;;9.30;1.00;;;;;;2281392;61;1035;-84
2020/12/26 00:47:52;180653.00;0.60;312.61;86400.00;0.29;150.09;;;;;9.70;1.00;;;;;;2281337;61;1312;-84
2020/12/26 00:50:18;207542.00;0.69;358.90;102310.00;0.34;177.56;;;;;9.40;1.00;;;;;;2281392;61;990;-83
2020/12/26 00:52:45;202175.00;0.67;349.67;85841.00;0.29;149.13;;;;;10.00;1.00;;;;;;2281381;61;1161;-85
2020/12/26 00:55:11;179742.00;0.60;311.05;83748.00;0.28;145.51;;;;;9.60;1.00;;;;;;2281324;61;1989;-84
2020/12/26 00:57:37;250079.00;0.83;432.09;91565.00;0.31;159.01;;;;;10.10;1.00;;;;;;2281334;61;1423;-84
2020/12/26 01:00:05;255564.00;0.85;441.52;87007.00;0.29;151.14;;;;;10.20;1.00;;;;;;2281344;61;1099;-85
2020/12/26 01:02:33;170156.00;0.57;294.54;90097.00;0.30;156.48;;;;;10.60;1.00;;;;;;2281328;61;1093;-85
2020/12/26 01:04:59;170570.00;0.57;295.25;87357.00;0.29;151.74;;;;;10.60;1.00;;;;;;2281328;61;1089;-84
2020/12/26 01:07:26;211693.00;0.71;366.05;91042.00;0.30;158.11;;;;;10.60;1.00;;;;;;2281297;61;1429;-84
2020/12/26 01:09:52;241914.00;0.81;418.04;90387.00;0.30;156.98;;;;;10.70;1.00;;;;;;2281336;61;1130;-84
2020/12/26 01:12:19;219034.00;0.73;378.68;90084.00;0.30;156.45;;;;;10.70;1.00;;;;;;2281297;61;1224;-84
2020/12/26 01:14:45;172218.00;0.57;298.09;92083.00;0.31;159.90;;;;;10.40;1.00;;;;;;2281232;61;1911;-84
2020/12/26 01:17:12;184229.00;0.61;318.77;86623.00;0.29;150.48;;;;;10.40;1.00;;;;;;2281279;61;1406;-84
2020/12/26 01:19:40;246700.00;0.82;426.28;90427.00;0.30;157.05;;;;;9.90;1.00;;;;;;2281327;61;1108;-85
2020/12/26 01:22:06;257798.00;0.86;445.36;80659.00;0.27;140.18;;;;;10.10;1.00;;;;;;2281300;61;1102;-84
2020/12/26 01:24:33;241109.00;0.80;416.66;92521.00;0.31;160.66;;;;;9.70;1.00;;;;;;2281293;61;1110;-85
2020/12/26 01:26:59;245194.00;0.82;423.69;94252.00;0.31;163.65;;;;;9.80;1.00;;;;;;2281284;61;1457;-83
2020/12/26 01:29:26;310194.00;1.03;535.44;83942.00;0.28;145.85;;;;;10.10;1.00;;;;;;2281281;61;1146;-84
2020/12/26 01:31:53;194429.00;0.65;336.33;98569.00;0.33;171.10;;;;;10.30;1.00;;;;;;2281294;61;1027;-83
2020/12/26 01:34:20;246687.00;0.82;426.25;86971.00;0.29;151.08;;;;;10.40;1.00;;;;;;2281223;61;1988;-85
2020/12/26 01:36:50;243969.00;0.81;421.58;85762.00;0.29;148.99;;;;;10.40;1.00;;;;;;2281190;61;1609;-85
2020/12/26 01:39:17;277344.00;0.92;478.97;85517.00;0.29;148.57;;;;;10.50;1.00;;;;;;2281262;61;1119;-84
2020/12/26 01:41:47;231790.00;0.77;400.63;92470.00;0.31;160.57;;;;;10.60;1.00;;;;;;2272686;61;1031;-85
2020/12/26 01:44:13;360758.00;1.20;622.35;87277.00;0.29;151.61;;;;;10.50;1.00;;;;;;2272645;61;1644;-85
2020/12/26 01:46:40;116828720.00;389.43;64590976.00;84009.00;0.28;145.96;;;;;10.70;1.00;;;;;;2272726;61;1103;-84
2020/12/26 01:49:06;328550.00;1.10;566.99;85654.00;0.29;148.80;;;;;10.80;1.00;;;;;;2272702;61;1334;-85
2020/12/26 01:51:34;579525.00;1.93;998.88;107337.00;0.36;186.23;;;;;10.60;1.00;;;;;;2272711;61;1118;-84
2020/12/26 01:54:02;261068.00;0.87;450.99;88553.00;0.30;153.81;;;;;9.70;1.00;;;;;;2272695;61;1996;-84
2020/12/26 01:56:30;285451.00;0.95;492.91;85647.00;0.29;148.79;;;;;9.50;1.00;;;;;;2272711;61;1034;-85
2020/12/26 01:58:56;363875.00;1.21;627.71;82591.00;0.28;143.51;;;;;9.60;1.00;;;;;;2274008;61;1409;-84
2020/12/26 02:01:33;245544.00;0.82;424.29;93453.00;0.31;162.27;;;;;8.80;1.00;;;;;;2281144;61;1063;-84
2020/12/26 02:04:00;350703.00;1.17;605.07;89284.00;0.30;155.07;;;;;9.10;1.00;;;;;;2281205;61;1049;-85
2020/12/26 02:06:30;356324.00;1.19;614.73;85164.00;0.28;147.96;;;;;9.50;1.00;;;;;;2281100;61;1129;-85
2020/12/26 02:08:59;424884.00;1.42;732.59;88101.00;0.29;153.03;;;;;9.20;1.00;;;;;;2281140;61;1486;-85
2020/12/26 02:11:27;457259.00;1.52;788.27;85407.00;0.28;148.38;;;;;8.80;1.00;;;;;;2281151;61;1125;-85
2020/12/26 02:13:54;544541.00;1.82;938.55;76378.00;0.25;132.78;;;;;9.20;1.00;;;;;;2281107;61;1914;-85
2020/12/26 02:16:21;457011.00;1.52;787.84;91209.00;0.30;158.40;;;;;9.50;1.00;;;;;;2281100;61;1118;-85
2020/12/26 02:18:48;419773.00;1.40;723.80;83177.00;0.28;144.52;;;;;9.80;1.00;;;;;;2281146;61;1441;-85
2020/12/26 02:21:14;456963.00;1.52;787.76;91504.00;0.31;158.90;;;;;9.40;1.00;;;;;;2281122;61;1079;-85
2020/12/26 02:23:44;387653.00;1.29;668.58;96509.00;0.32;167.55;;;;;9.30;1.00;;;;;;2281098;61;1158;-84
2020/12/26 02:26:11;441290.00;1.47;760.80;89381.00;0.30;155.24;;;;;8.70;1.00;;;;;;2274051;61;1003;-85
2020/12/26 02:28:38;482418.00;1.61;831.56;83934.00;0.28;145.83;;;;;8.00;1.00;;;;;;2268448;61;1395;-85
2020/12/26 02:31:05;545955.00;1.82;940.99;122211.00;0.41;211.90;;;;;8.70;1.00;;;;;;2268519;61;1145;-85
2020/12/26 02:33:34;388049.00;1.29;669.26;87549.00;0.29;152.08;;;;;8.20;1.00;;;;;;2268487;61;1997;-85
2020/12/26 02:36:01;517426.00;1.72;891.83;88813.00;0.30;154.26;;;;;8.50;1.00;;;;;;2268525;61;1123;-85
2020/12/26 02:38:27;505194.00;1.68;870.77;90384.00;0.30;156.97;;;;;8.50;1.00;;;;;;2268508;61;1418;-85
2020/12/26 02:40:55;523994.00;1.75;903.14;82596.00;0.28;143.52;;;;;8.70;1.00;;;;;;2268471;61;1127;-85
2020/12/26 02:43:23;438272.00;1.46;755.61;98430.00;0.33;170.86;;;;;8.80;1.00;;;;;;2268475;61;1155;-85
2020/12/26 02:45:50;615176.00;2.05;1060.43;84031.00;0.28;146.00;;;;;8.50;1.00;;;;;;2268335;61;1725;-85
2020/12/26 02:48:17;550948.00;1.84;949.59;93263.00;0.31;161.94;;;;;7.90;1.00;;;;;;2268448;61;1450;-85
2020/12/26 02:50:44;487183.00;1.62;839.76;92089.00;0.31;159.91;;;;;8.10;1.00;;;;;;2268409;61;1565;-85
2020/12/26 02:53:11;484789.00;1.62;835.64;80232.00;0.27;139.44;;;;;8.30;1.00;;;;;;2275550;61;1044;-84
2020/12/26 02:55:37;585375.00;1.95;1008.97;91575.00;0.31;159.03;;;;;8.20;1.00;;;;;;2280981;61;1928;-84
2020/12/26 02:58:05;538593.00;1.80;928.30;87344.00;0.29;151.72;;;;;8.30;1.00;;;;;;2280963;61;1398;-85
2020/12/26 03:00:31;437523.00;1.46;754.32;89231.00;0.30;154.98;;;;;8.40;1.00;;;;;;2280888;61;1630;-86
2020/12/26 03:02:58;540888.00;1.80;932.25;98355.00;0.33;170.73;;;;;8.30;1.00;;;;;;2280970;61;2029;-86
2020/12/26 03:05:25;571118.00;1.90;984.38;85715.00;0.29;148.91;;;;;8.50;1.00;;;;;;2280976;61;1092;-86
2020/12/26 03:07:51;661694.00;2.21;1140.87;84170.00;0.28;146.24;;;;;8.90;1.00;;;;;;2280964;61;1425;-85
2020/12/26 03:10:18;454918.00;1.52;784.24;92569.00;0.31;160.74;;;;;9.40;1.00;;;;;;2280974;61;1100;-86
2020/12/26 03:12:45;572934.00;1.91;987.51;111852.00;0.37;194.03;;;;;9.70;1.00;;;;;;2280986;61;1103;-86
2020/12/26 03:15:12;508687.00;1.70;876.78;80332.00;0.27;139.61;;;;;9.80;1.00;;;;;;2277194;61;2002;-87
2020/12/26 03:17:39;482450.00;1.61;831.61;89736.00;0.30;155.85;;;;;9.90;1.00;;;;;;2280925;61;1435;-84
2020/12/26 03:20:06;500378.00;1.67;862.47;91292.00;0.30;158.54;;;;;10.00;1.00;;;;;;2280905;61;1849;-85
2020/12/26 03:22:33;596190.00;1.99;1027.64;66831.00;0.22;116.28;;;;;10.20;1.00;;;;;;2280957;61;1052;-84
2020/12/26 03:25:00;544555.00;1.82;938.57;78609.00;0.26;136.63;;;;;9.90;1.00;;;;;;2280950;61;924;-85
2020/12/26 03:27:27;528720.00;1.76;911.29;81430.00;0.27;141.51;;;;;9.30;1.00;;;;;;2280871;61;1346;-84
2020/12/26 03:29:54;577133.00;1.92;994.75;84801.00;0.28;147.33;;;;;8.60;1.00;;;;;;2280906;61;1100;-85
2020/12/26 03:32:22;872984.00;2.91;1508.72;85029.00;0.28;147.72;;;;;8.70;1.00;;;;;;2280903;61;1094;-85
2020/12/26 03:34:49;291123.00;0.97;502.66;0.00;0.00;0.62;;;;;8.70;1.00;;;;;;2280830;61;1927;-85
2020/12/26 03:37:16;375385.00;1.25;647.49;0.00;0.00;0.62;;;;;8.40;1.00;;;;;;2280849;61;1430;-84
2020/12/26 03:39:43;404415.00;1.35;697.40;0.00;0.00;0.62;;;;;7.90;1.00;;;;;;2280886;61;1130;-85
2020/12/26 03:42:11;346222.00;1.15;597.37;89948.00;0.30;156.22;;;;;8.10;1.00;;;;;;2280882;61;1129;-85
2020/12/26 03:44:39;323302.00;1.08;557.97;0.00;0.00;0.62;;;;;8.10;1.00;;;;;;2280858;61;1131;-86
2020/12/26 03:47:06;490189.00;1.63;844.93;0.00;0.00;0.62;;;;;8.00;1.00;;;;;;2280822;61;1329;-85
2020/12/26 03:49:34;328522.00;1.10;566.95;0.00;0.00;0.62;;;;;7.80;1.00;;;;;;2280862;61;996;-84
2020/12/26 03:52:01;583232.00;1.94;1005.28;15542.00;0.05;27.55;;;;;8.20;1.00;;;;;;2280851;61;1117;-84
2020/12/26 03:54:27;331701.00;1.11;572.41;0.00;0.00;0.62;;;;;8.70;1.00;;;;;;2280802;61;1907;-85
2020/12/26 03:56:54;340104.00;1.13;586.85;0.00;0.00;0.62;;;;;9.00;1.00;;;;;;2280774;61;1311;-85
2020/12/26 03:59:21;277515.00;0.93;479.27;0.00;0.00;0.62;;;;;8.70;1.00;;;;;;2280648;61;1126;-85
2020/12/26 04:01:47;325999.00;1.09;562.61;0.00;0.00;0.62;;;;;8.10;1.00;;;;;;2280764;61;1079;-86
2020/12/26 04:04:14;777316.00;2.59;1341.59;83925.00;0.28;145.82;;;;;8.20;1.00;;;;;;2280830;61;1118;-84
2020/12/26 04:06:41;340657.00;1.14;587.80;0.00;0.00;0.62;;;;;8.50;1.00;;;;;;2280810;61;1126;-85
2020/12/26 04:09:08;477925.00;1.59;823.83;26190.00;0.09;45.99;;;;;8.70;1.00;;;;;;2280793;61;1350;-84
2020/12/26 04:11:35;320558.00;1.07;553.26;17612.00;0.06;31.13;;;;;8.20;1.00;;;;;;2280786;61;1114;-86
2020/12/26 04:14:02;565335.00;1.88;974.40;18127.00;0.06;32.03;;;;;8.00;1.00;;;;;;2280627;61;2004;-85
2020/12/26 04:16:28;558788.00;1.86;963.11;0.00;0.00;0.62;;;;;8.40;1.00;;;;;;2280726;61;1601;-85
2020/12/26 04:18:54;374180.00;1.25;645.42;0.00;0.00;0.62;;;;;8.70;1.00;;;;;;2280764;61;1442;-85
2020/12/26 04:21:22;231489.00;0.77;400.11;0.00;0.00;0.62;;;;;8.60;1.00;;;;;;2280759;61;1055;-85
2020/12/26 04:23:50;463731.00;1.55;799.40;0.00;0.00;0.62;;;;;8.90;1.00;;;;;;2280722;61;1716;-85
2020/12/26 04:26:16;251633.00;0.84;434.76;0.00;0.00;0.62;;;;;9.00;1.00;;;;;;2280748;61;1109;-85
2020/12/26 04:28:43;497278.00;1.66;857.14;0.00;0.00;0.62;;;;;9.50;1.00;;;;;;2280716;61;1429;-84
2020/12/26 04:31:09;343432.00;1.14;592.57;0.00;0.00;0.62;;;;;8.80;1.00;;;;;;2280755;61;1171;-85
2020/12/26 04:33:36;371013.00;1.24;639.98;0.00;0.00;0.62;;;;;8.80;1.00;;;;;;2280606;61;2014;-85
2020/12/26 04:36:03;355585.00;1.19;613.46;0.00;0.00;0.62;;;;;8.30;1.00;;;;;;2280729;61;1126;-85
2020/12/26 04:38:29;415073.00;1.38;715.72;0.00;0.00;0.62;;;;;8.50;1.00;;;;;;2280703;61;1339;-84
2020/12/26 04:40:58;284629.00;0.95;491.50;0.00;0.00;0.62;;;;;8.30;1.00;;;;;;2280711;61;1111;-85
2020/12/26 04:43:25;264735.00;0.88;457.29;0.00;0.00;0.62;;;;;8.10;1.00;;;;;;2280683;61;1097;-85
2020/12/26 04:45:55;308633.00;1.03;532.76;0.00;0.00;0.62;;;;;8.60;1.00;;;;;;2280690;61;1134;-84
2020/12/26 04:48:24;379925.00;1.27;655.30;0.00;0.00;0.62;;;;;8.70;1.00;;;;;;2280655;61;1343;-85
2020/12/26 04:50:52;184822.00;0.62;319.79;0.00;0.00;0.62;;;;;9.20;1.00;;;;;;2280689;61;1059;-85
2020/12/26 04:53:21;558622.00;1.86;962.82;119458.00;0.40;207.15;;;;;9.20;1.00;;;;;;2280655;61;1578;-85
2020/12/26 04:55:50;313873.00;1.05;541.77;96970.00;0.32;168.34;;;;;8.90;1.00;;;;;;2280652;61;2001;-84
2020/12/26 04:58:18;657397.00;2.19;1133.44;90268.00;0.30;156.77;;;;;8.70;1.00;;;;;;2280635;61;1315;-85
2020/12/26 05:00:45;383073.00;1.28;660.71;20737.00;0.07;36.55;;;;;8.80;1.00;;;;;;2280609;61;1129;-85
2020/12/26 05:03:14;510289.00;1.70;879.54;128274.00;0.43;222.35;;;;;8.80;1.00;;;;;;2280664;61;973;-85
2020/12/26 05:05:43;585160.00;1.95;1008.60;93190.00;0.31;161.82;;;;;8.90;1.00;;;;;;2280652;61;1153;-85
2020/12/26 05:08:12;253852.00;0.85;438.58;0.00;0.00;0.62;;;;;8.90;1.00;;;;;;2280603;61;1405;-85
2020/12/26 05:10:39;311006.00;1.04;536.84;0.00;0.00;0.62;;;;;8.90;1.00;;;;;;2281236;61;1138;-85
2020/12/26 05:13:07;254969.00;0.85;440.50;0.00;0.00;0.62;;;;;9.50;1.00;;;;;;2277613;61;1114;-85
2020/12/26 05:15:35;289435.00;0.96;499.76;0.00;0.00;0.62;;;;;10.10;1.00;;;;;;2270902;61;2075;-84
2020/12/26 05:18:02;158127.00;0.53;273.81;0.00;0.00;0.62;;;;;10.30;1.00;;;;;;2270870;61;1438;-85
2020/12/26 05:20:29;270734.00;0.90;467.61;0.00;0.00;0.62;;;;;9.80;1.00;;;;;;2281312;61;1115;-84
2020/12/26 05:23:07;335451.00;1.12;578.86;0.00;0.00;0.62;;;;;10.20;1.00;;;;;;2281313;61;1162;-84
2020/12/26 05:25:38;65684.00;0.22;114.30;0.00;0.00;0.62;;;;;10.40;1.00;;;;;;2281285;61;1100;-85
2020/12/26 05:28:10;145836.00;0.49;252.63;0.00;0.00;0.62;;;;;10.20;1.00;;;;;;2281274;61;1387;-84
2020/12/26 05:30:38;44134.00;0.15;77.04;0.00;0.00;0.62;;;;;10.70;1.00;;;;;;2274215;61;982;-85
2020/12/26 05:33:06;116698.00;0.39;202.39;0.00;0.00;0.62;;;;;10.40;1.00;;;;;;2281307;61;1075;-84
2020/12/26 05:35:41;91597.00;0.31;159.07;0.00;0.00;0.62;;;;;9.40;1.00;;;;;;2281263;61;1990;-86
2020/12/26 05:38:17;12238.00;0.04;21.83;0.00;0.00;0.62;;;;;8.70;1.00;;;;;;2281235;61;1462;-85
2020/12/26 05:40:45;0.00;0.00;0.62;0.00;0.00;0.62;;;;;8.70;1.00;;;;;;2281216;61;1126;-85
2020/12/26 05:43:15;4059.00;0.01;7.65;0.00;0.00;0.62;;;;;8.90;1.00;;;;;;2281257;61;970;-84
2020/12/26 05:45:43;0.00;0.00;0.62;0.00;0.00;0.62;;;;;8.70;1.00;;;;;;2272663;61;1027;-84
2020/12/26 05:48:12;813.00;0.00;2.03;0.00;0.00;0.62;;;;;8.90;1.00;;;;;;2272658;61;1337;-85
2020/12/26 05:50:40;0.00;0.00;0.62;0.00;0.00;0.62;;;;;9.20;1.00;;;;;;2272692;61;1144;-84
2020/12/26 05:53:08;0.00;0.00;0.62;0.00;0.00;0.62;;;;;9.40;1.00;;;;;;2272662;61;1093;-85
2020/12/26 05:55:39;2660.00;0.01;5.23;0.00;0.00;0.62;;;;;9.80;1.00;;;;;;2272660;61;2004;-85
2020/12/26 05:58:06;0.00;0.00;0.62;0.00;0.00;0.62;;;;;10.40;1.00;;;;;;2272521;61;1438;-84
2020/12/26 06:00:34;45463.00;0.15;79.34;0.00;0.00;0.62;;;;;10.20;1.00;;;;;;2269215;61;1146;-84
2020/12/26 06:03:23;71769.00;0.24;124.82;0.00;0.00;0.62;;;;;10.50;1.00;;;;;;2270887;61;1140;-85
2020/12/26 06:05:52;0.00;0.00;0.62;0.00;0.00;0.62;;;;;10.40;1.00;;;;;;2274021;61;1040;-84
2020/12/26 06:08:20;39285.00;0.13;68.65;0.00;0.00;0.62;;;;;10.50;1.00;;;;;;2280769;61;1493;-85
2020/12/26 06:10:50;80218.00;0.27;139.41;0.00;0.00;0.62;;;;;10.90;1.00;;;;;;2280774;61;1011;-85
2020/12/26 06:13:18;0.00;0.00;0.62;0.00;0.00;0.62;;;;;11.10;1.00;;;;;;2280765;61;995;-84
2020/12/26 06:15:53;9052.00;0.03;16.31;0.00;0.00;0.62;;;;;11.30;1.00;;;;;;2280815;61;1997;-85
2020/12/26 06:18:22;0.00;0.00;0.62;0.00;0.00;0.62;;;;;11.30;1.00;;;;;;2274064;61;1422;-85
2020/12/26 06:20:49;143626.00;0.48;248.82;26071.00;0.09;45.78;;;;;11.00;1.00;;;;;;2280951;61;1016;-85
2020/12/26 06:23:17;116787.00;0.39;202.54;0.00;0.00;0.62;;;;;10.90;1.00;;;;;;2281141;61;1125;-85
2020/12/26 06:25:45;73418.00;0.24;127.67;0.00;0.00;0.62;;;;;10.70;1.00;;;;;;2276596;61;1072;-84
2020/12/26 06:28:28;0.00;0.00;0.62;0.00;0.00;0.62;;;;;10.10;1.00;;;;;;2276610;61;1447;-84
2020/12/26 06:30:58;26057.00;0.09;45.76;0.00;0.00;0.62;;;;;10.40;1.00;;;;;;2276649;61;1010;-85
2020/12/26 06:33:29;0.00;0.00;0.62;0.00;0.00;0.62;;;;;10.60;1.00;;;;;;2273189;61;1099;-86
2020/12/26 06:35:58;106695.00;0.36;185.13;13283.00;0.04;23.64;;;;;9.90;1.00;;;;;;2269887;61;1936;-84
2020/12/26 06:38:29;391267.00;1.30;674.79;144216.00;0.48;249.84;;;;;9.70;1.00;;;;;;2269836;61;1321;-85
2020/12/26 06:40:58;71799.00;0.24;124.87;0.00;0.00;0.62;;;;;10.10;1.00;;;;;;2276605;61;1309;-84
2020/12/26 06:43:47;104490.00;0.35;181.32;37670.00;0.13;65.86;;;;;10.40;1.00;;;;;;2269855;61;1004;-84
2020/12/26 06:46:47;2238.00;0.01;4.50;0.00;0.00;0.62;;;;;10.40;1.00;;;;;;2269132;61;1040;-85
2020/12/26 06:49:27;35061.00;0.12;61.34;0.00;0.00;0.62;;;;;10.60;1.00;;;;;;2250576;61;1146;-85
2020/12/26 06:51:55;0.00;0.00;0.62;0.00;0.00;0.62;;;;;9.60;1.00;;;;;;2260356;61;1525;-85
2020/12/26 06:54:42;39387.00;0.13;68.83;0.00;0.00;0.62;;;;;9.20;1.00;;;;;;2260315;61;1919;-85
2020/12/26 06:57:09;102466.00;0.34;177.83;33585.00;0.11;58.79;;;;;8.20;1.00;;;;;;2260353;61;1466;-87
2020/12/26 06:59:36;76653.00;0.26;133.26;0.00;0.00;0.62;;;;;7.70;1.00;;;;;;2260410;61;1132;-87
2020/12/26 07:02:08;66624.00;0.22;115.93;0.00;0.00;0.62;;;;;7.70;1.00;;;;;;2266562;61;1090;-86
2020/12/26 07:04:42;117455.00;0.39;203.69;0.00;0.00;0.62;;;;;7.70;1.00;;;;;;2268351;61;1132;-84
2020/12/26 07:07:12;86630.00;0.29;150.49;0.00;0.00;0.62;;;;;7.70;1.00;;;;;;2268392;61;1333;-84
2020/12/26 07:09:49;44157.00;0.15;77.08;0.00;0.00;0.62;;;;;7.90;1.00;;;;;;2268443;61;1072;-86
2020/12/26 07:12:16;17482.00;0.06;30.91;0.00;0.00;0.62;;;;;7.70;1.00;;;;;;2268324;61;1709;-86
2020/12/26 07:14:44;21137.00;0.07;37.24;0.00;0.00;0.62;;;;;7.70;1.00;;;;;;2268289;61;1999;-86
2020/12/26 07:17:26;0.00;0.00;0.62;0.00;0.00;0.62;;;;;7.80;1.00;;;;;;2268386;61;1428;-84
2020/12/26 07:19:58;7993.00;0.03;14.47;0.00;0.00;0.62;;;;;7.90;1.00;;;;;;2274475;61;1198;-84
2020/12/26 07:22:26;29232.00;0.10;51.25;0.00;0.00;0.62;;;;;8.10;1.00;;;;;;2272252;61;955;-85
2020/12/26 07:24:55;0.00;0.00;0.62;0.00;0.00;0.62;;;;;8.20;1.00;;;;;;2272350;61;1169;-85
2020/12/26 07:27:29;55291.00;0.18;96.34;0.00;0.00;0.62;;;;;7.90;1.00;;;;;;2272363;61;1318;-85
2020/12/26 07:30:10;257127.00;0.86;444.21;0.00;0.00;0.62;;;;;7.90;1.00;;;;;;2272398;61;1039;-85
2020/12/26 07:32:55;10902.00;0.04;19.51;0.00;0.00;0.62;;;;;8.10;1.00;;;;;;2272334;61;1133;-85
2020/12/26 07:35:40;41364.00;0.14;72.25;0.00;0.00;0.62;;;;;8.20;1.00;;;;;;2272354;61;1998;-85
2020/12/26 07:38:10;0.00;0.00;0.62;0.00;0.00;0.62;;;;;8.00;1.00;;;;;;2262319;61;1478;-85
2020/12/26 07:40:38;116932.00;0.39;202.79;28534.00;0.10;50.05;;;;;7.90;1.00;;;;;;2273771;61;1047;-85
2020/12/26 07:43:08;0.00;0.00;0.62;0.00;0.00;0.62;;;;;8.00;1.00;;;;;;2280836;61;1542;-85
2020/12/26 07:45:36;55926.00;0.19;97.43;0.00;0.00;0.62;;;;;7.70;1.00;;;;;;2273772;61;1149;-86
2020/12/26 07:48:04;0.00;0.00;0.62;0.00;0.00;0.62;;;;;7.70;1.00;;;;;;2280792;61;1432;-85
2020/12/26 07:50:33;26607.00;0.09;46.71;0.00;0.00;0.62;;;;;7.50;1.00;;;;;;2280859;61;1158;-87
2020/12/26 07:53:04;404991.00;1.35;698.39;58210.00;0.19;101.38;;;;;7.60;1.00;;;;;;2280840;61;1067;-86
2020/12/26 07:55:31;42264.00;0.14;73.81;0.00;0.00;0.62;;;;;7.60;1.00;;;;;;2280811;61;1915;-87
2020/12/26 07:58:03;46066.00;0.15;80.38;0.00;0.00;0.62;;;;;7.30;1.00;;;;;;2280723;61;1659;-86
2020/12/26 08:00:31;37927.00;0.13;66.30;0.00;0.00;0.62;;;;;7.40;1.00;;;;;;2280814;61;1073;-87
2020/12/26 08:03:00;17979.00;0.06;31.77;0.00;0.00;0.62;;;;;7.20;1.00;;;;;;2280825;61;929;-85
2020/12/26 08:05:29;5673.00;0.02;10.45;0.00;0.00;0.62;;;;;7.10;1.00;;;;;;2280809;61;1098;-86
2020/12/26 08:07:55;120637.00;0.40;209.18;0.00;0.00;0.62;;;;;7.30;1.00;;;;;;2280755;61;1410;-86
2020/12/26 08:10:24;172686.00;0.58;298.89;0.00;0.00;0.62;;;;;7.40;1.00;;;;;;2280738;61;1110;-86
2020/12/26 08:12:56;37718.00;0.13;65.94;0.00;0.00;0.62;;;;;6.80;1.00;;;;;;2280759;61;1081;-86
2020/12/26 08:15:28;364833.00;1.22;629.36;29027.00;0.10;50.90;;;;;7.30;1.00;;;;;;2280578;61;2004;-86
2020/12/26 08:17:56;0.00;0.00;0.62;0.00;0.00;0.62;;;;;8.20;1.00;;;;;;2280730;61;1415;-86
2020/12/26 08:20:26;203497.00;0.68;351.94;38534.00;0.13;67.35;;;;;8.50;1.00;;;;;;2280758;61;1120;-85
2020/12/26 08:22:53;48646.00;0.16;84.84;0.00;0.00;0.62;;;;;8.40;1.00;;;;;;2280742;61;1059;-85
2020/12/26 08:25:23;98755.00;0.33;171.42;0.00;0.00;0.62;;;;;8.40;1.00;;;;;;2280727;61;1070;-86
2020/12/26 08:27:50;121173.00;0.40;210.11;4863.00;0.02;9.05;;;;;8.50;1.00;;;;;;2280661;61;1663;-86
2020/12/26 08:30:19;18910.00;0.06;33.38;0.00;0.00;0.62;;;;;8.40;1.00;;;;;;2280753;61;1005;-87
2020/12/26 08:33:00;0.00;0.00;0.62;0.00;0.00;0.62;;;;;8.50;1.00;;;;;;2280744;61;982;-87
2020/12/26 08:35:28;129232.00;0.43;224.00;18048.00;0.06;31.89;;;;;7.90;1.00;;;;;;2280698;61;1990;-86
2020/12/26 08:38:02;168470.00;0.56;291.63;0.00;0.00;0.62;;;;;7.90;1.00;;;;;;2280696;61;1332;-85
2020/12/26 08:40:34;0.00;0.00;0.62;0.00;0.00;0.62;;;;;7.90;1.00;;;;;;2280670;61;1140;-85
2020/12/26 08:43:02;52447.00;0.17;91.42;0.00;0.00;0.62;;;;;7.90;1.00;;;;;;2280730;61;1028;-86
2020/12/26 08:45:31;80491.00;0.27;139.89;0.00;0.00;0.62;;;;;7.40;1.00;;;;;;2281263;61;1071;-85
2020/12/26 08:48:12;77806.00;0.26;135.25;9501.00;0.03;17.08;;;;;7.30;1.00;;;;;;2281402;61;1372;-86
2020/12/26 08:50:38;70501.00;0.24;122.63;0.00;0.00;0.62;;;;;7.40;1.00;;;;;;2281409;61;1062;-86
2020/12/26 08:53:07;61373.00;0.20;106.85;0.00;0.00;0.62;;;;;7.10;1.00;;;;;;2281397;61;1070;-85
2020/12/26 08:55:46;286100.00;0.95;494.02;35023.00;0.12;61.28;;;;;6.80;1.00;;;;;;2281355;61;1915;-86
2020/12/26 08:58:23;0.00;0.00;0.62;0.00;0.00;0.62;;;;;7.20;1.00;;;;;;2272771;61;1432;-86
2020/12/26 09:00:49;0.00;0.00;0.62;0.00;0.00;0.62;;;;;7.10;1.00;;;;;;2272839;61;1161;-86
2020/12/26 09:03:20;49424.00;0.16;86.19;0.00;0.00;0.62;;;;;6.70;1.00;;;;;;2272856;61;1106;-86
2020/12/26 09:05:47;0.00;0.00;0.62;0.00;0.00;0.62;;;;;6.80;1.00;;;;;;2272833;61;1134;-85
2020/12/26 09:08:13;11139.00;0.04;19.92;0.00;0.00;0.62;;;;;6.90;1.00;;;;;;2272809;61;1477;-85
2020/12/26 09:10:40;0.00;0.00;0.62;0.00;0.00;0.62;;;;;7.10;1.00;;;;;;2272808;61;1072;-86
2020/12/26 09:13:10;29795.00;0.10;52.23;0.00;0.00;0.62;;;;;7.50;1.00;;;;;;2266108;61;1132;-85
2020/12/26 09:15:54;111560.00;0.37;193.52;28069.00;0.09;49.24;;;;;7.60;1.00;;;;;;2274743;61;2001;-86
2020/12/26 09:18:22;218369.00;0.73;377.54;0.00;0.00;0.62;;;;;7.40;1.00;;;;;;2281282;61;1463;-85
2020/12/26 09:20:53;0.00;0.00;0.62;0.00;0.00;0.62;;;;;7.40;1.00;;;;;;2281305;61;1118;-86
2020/12/26 09:23:20;0.00;0.00;0.62;0.00;0.00;0.62;;;;;7.40;1.00;;;;;;2281320;61;951;-85
2020/12/26 09:25:48;116998.00;0.39;202.90;0.00;0.00;0.62;;;;;7.60;1.00;;;;;;2281282;61;1031;-85
2020/12/26 09:28:16;128993.00;0.43;223.59;0.00;0.00;0.62;;;;;7.50;1.00;;;;;;2281300;61;1301;-85
2020/12/26 09:30:42;0.00;0.00;0.62;0.00;0.00;0.62;;;;;7.30;1.00;;;;;;2281311;61;1091;-85
2020/12/26 09:33:09;13851.00;0.05;24.62;0.00;0.00;0.62;;;;;7.20;1.00;;;;;;2281285;61;1145;-86
2020/12/26 09:35:36;41341.00;0.14;72.21;0.00;0.00;0.62;;;;;7.30;1.00;;;;;;2281139;61;1994;-86
2020/12/26 09:38:03;0.00;0.00;0.62;0.00;0.00;0.62;;;;;7.50;1.00;;;;;;2281139;61;1346;-85
2020/12/26 09:40:32;6436.00;0.02;11.77;0.00;0.00;0.62;;;;;7.60;1.00;;;;;;2281152;61;1217;-85
2020/12/26 09:42:58;20402.00;0.07;35.97;0.00;0.00;0.62;;;;;7.20;1.00;;;;;;2274048;61;1023;-85
2020/12/26 09:45:26;53443.00;0.18;93.14;0.00;0.00;0.62;;;;;7.10;1.00;;;;;;2274156;61;962;-86
2020/12/26 09:47:56;21411.00;0.07;37.71;0.00;0.00;0.62;;;;;7.70;1.00;;;;;;2274114;61;1459;-85
2020/12/26 09:50:22;0.00;0.00;0.62;0.00;0.00;0.62;;;;;8.60;1.00;;;;;;2281251;61;982;-86
2020/12/26 09:52:49;33381.00;0.11;58.43;0.00;0.00;0.62;;;;;8.90;1.00;;;;;;2281188;61;1153;-85
2020/12/26 09:55:15;0.00;0.00;0.62;0.00;0.00;0.62;;;;;9.00;1.00;;;;;;2281172;61;1984;-83
2020/12/26 09:57:42;85520.00;0.29;148.57;5893.00;0.02;10.83;;;;;9.50;1.00;;;;;;2281179;61;1310;-84
2020/12/26 10:00:09;85247.00;0.28;148.10;0.00;0.00;0.62;;;;;9.60;1.00;;;;;;2272652;61;1036;-84
2020/12/26 10:02:37;98464.00;0.33;170.92;31551.00;0.11;55.27;;;;;9.60;1.00;;;;;;2262653;61;1137;-85